sensor_id;sensor_type;location;lat;lon;timestamp;P1;durP1;ratioP1;P2;durP2;ratioP2
13173;SDS011;6652;48.802;9.190;2023-03-05T00:00:05;56.65;;;25.15;;
13173;SDS011;6652;48.802;9.190;2023-03-05T00:02:33;54.72;;;24.52;;
13173;SDS011;6652;48.802;9.190;2023-03-05T00:05:00;59.58;;;26.90;;
13173;SDS011;6652;48.802;9.190;2023-03-05T00:07:29;65.65;;;27.40;;
13173;SDS011;6652;48.802;9.190;2023-03-05T00:09:57;57.38;;;24.92;;
13173;SDS011;6652;48.802;9.190;2023-03-05T00:12:25;57.75;;;25.30;;
13173;SDS011;6652;48.802;9.190;2023-03-05T00:14:52;58.28;;;24.40;;
13173;SDS011;6652;48.802;9.190;2023-03-05T00:17:18;65.35;;;24.80;;
13173;SDS011;6652;48.802;9.190;2023-03-05T00:19:45;63.17;;;25.05;;
13173;SDS011;6652;48.802;9.190;2023-03-05T00:22:12;58.15;;;24.58;;
13173;SDS011;6652;48.802;9.190;2023-03-05T00:24:41;56.53;;;24.25;;
13173;SDS011;6652;48.802;9.190;2023-03-05T00:27:07;61.25;;;25.08;;
13173;SDS011;6652;48.802;9.190;2023-03-05T00:29:34;55.95;;;24.92;;
13173;SDS011;6652;48.802;9.190;2023-03-05T00:32:01;61.85;;;24.77;;
13173;SDS011;6652;48.802;9.190;2023-03-05T00:34:28;61.35;;;26.13;;
13173;SDS011;6652;48.802;9.190;2023-03-05T00:36:55;58.35;;;24.23;;
13173;SDS011;6652;48.802;9.190;2023-03-05T00:39:22;55.80;;;25.35;;
13173;SDS011;6652;48.802;9.190;2023-03-05T00:41:51;63.53;;;25.33;;
13173;SDS011;6652;48.802;9.190;2023-03-05T00:44:18;66.18;;;24.77;;
13173;SDS011;6652;48.802;9.190;2023-03-05T00:46:45;59.53;;;25.58;;
13173;SDS011;6652;48.802;9.190;2023-03-05T00:49:12;58.03;;;25.52;;
13173;SDS011;6652;48.802;9.190;2023-03-05T00:51:39;69.18;;;23.55;;
13173;SDS011;6652;48.802;9.190;2023-03-05T00:54:06;63.60;;;24.90;;
13173;SDS011;6652;48.802;9.190;2023-03-05T00:56:33;60.63;;;24.55;;
13173;SDS011;6652;48.802;9.190;2023-03-05T00:59:02;53.78;;;24.50;;
13173;SDS011;6652;48.802;9.190;2023-03-05T01:04:06;53.83;;;23.98;;
13173;SDS011;6652;48.802;9.190;2023-03-05T01:06:33;60.15;;;24.25;;
13173;SDS011;6652;48.802;9.190;2023-03-05T01:09:00;58.83;;;23.05;;
13173;SDS011;6652;48.802;9.190;2023-03-05T01:11:27;55.47;;;23.90;;
13173;SDS011;6652;48.802;9.190;2023-03-05T01:13:56;63.75;;;24.55;;
13173;SDS011;6652;48.802;9.190;2023-03-05T01:16:24;58.50;;;24.88;;
13173;SDS011;6652;48.802;9.190;2023-03-05T01:18:51;60.17;;;24.67;;
13173;SDS011;6652;48.802;9.190;2023-03-05T01:21:18;52.40;;;24.70;;
13173;SDS011;6652;48.802;9.190;2023-03-05T01:23:46;61.40;;;24.23;;
13173;SDS011;6652;48.802;9.190;2023-03-05T01:26:12;61.17;;;26.30;;
13173;SDS011;6652;48.802;9.190;2023-03-05T01:28:39;59.55;;;24.95;;
13173;SDS011;6652;48.802;9.190;2023-03-05T01:31:07;63.30;;;25.27;;
13173;SDS011;6652;48.802;9.190;2023-03-05T01:33:36;57.42;;;23.98;;
13173;SDS011;6652;48.802;9.190;2023-03-05T01:36:05;58.50;;;24.23;;
13173;SDS011;6652;48.802;9.190;2023-03-05T01:38:34;61.70;;;26.30;;
13173;SDS011;6652;48.802;9.190;2023-03-05T01:41:00;60.28;;;25.15;;
13173;SDS011;6652;48.802;9.190;2023-03-05T01:43:28;61.10;;;24.00;;
13173;SDS011;6652;48.802;9.190;2023-03-05T01:48:52;52.55;;;24.30;;
13173;SDS011;6652;48.802;9.190;2023-03-05T01:51:24;61.20;;;25.58;;
13173;SDS011;6652;48.802;9.190;2023-03-05T01:53:54;60.15;;;25.92;;
13173;SDS011;6652;48.802;9.190;2023-03-05T01:56:23;54.72;;;23.80;;
13173;SDS011;6652;48.802;9.190;2023-03-05T01:58:50;56.70;;;25.17;;
13173;SDS011;6652;48.802;9.190;2023-03-05T02:01:19;60.15;;;24.20;;
13173;SDS011;6652;48.802;9.190;2023-03-05T02:03:46;56.92;;;24.38;;
13173;SDS011;6652;48.802;9.190;2023-03-05T02:06:15;57.30;;;24.17;;
13173;SDS011;6652;48.802;9.190;2023-03-05T02:08:42;66.57;;;25.30;;
13173;SDS011;6652;48.802;9.190;2023-03-05T02:11:08;59.40;;;23.92;;
13173;SDS011;6652;48.802;9.190;2023-03-05T02:13:35;55.30;;;24.30;;
13173;SDS011;6652;48.802;9.190;2023-03-05T02:16:05;59.25;;;25.55;;
13173;SDS011;6652;48.802;9.190;2023-03-05T02:18:32;62.40;;;24.48;;
13173;SDS011;6652;48.802;9.190;2023-03-05T02:21:02;64.70;;;25.98;;
13173;SDS011;6652;48.802;9.190;2023-03-05T02:23:30;63.17;;;26.88;;
13173;SDS011;6652;48.802;9.190;2023-03-05T02:26:00;60.55;;;25.08;;
13173;SDS011;6652;48.802;9.190;2023-03-05T02:28:29;54.83;;;23.70;;
13173;SDS011;6652;48.802;9.190;2023-03-05T02:30:59;64.97;;;25.67;;
13173;SDS011;6652;48.802;9.190;2023-03-05T02:33:26;59.88;;;24.73;;
13173;SDS011;6652;48.802;9.190;2023-03-05T02:35:53;57.75;;;24.92;;
13173;SDS011;6652;48.802;9.190;2023-03-05T02:38:22;69.03;;;25.02;;
13173;SDS011;6652;48.802;9.190;2023-03-05T02:40:48;62.80;;;24.25;;
13173;SDS011;6652;48.802;9.190;2023-03-05T02:43:15;57.40;;;25.95;;
13173;SDS011;6652;48.802;9.190;2023-03-05T02:45:42;53.13;;;24.77;;
13173;SDS011;6652;48.802;9.190;2023-03-05T02:48:12;59.17;;;25.25;;
13173;SDS011;6652;48.802;9.190;2023-03-05T02:50:40;55.95;;;25.75;;
13173;SDS011;6652;48.802;9.190;2023-03-05T02:53:08;61.08;;;24.35;;
13173;SDS011;6652;48.802;9.190;2023-03-05T02:55:36;60.58;;;24.98;;
13173;SDS011;6652;48.802;9.190;2023-03-05T02:58:03;69.68;;;25.90;;
13173;SDS011;6652;48.802;9.190;2023-03-05T03:00:30;55.60;;;24.50;;
13173;SDS011;6652;48.802;9.190;2023-03-05T03:02:57;62.17;;;26.00;;
13173;SDS011;6652;48.802;9.190;2023-03-05T03:05:24;64.22;;;26.65;;
13173;SDS011;6652;48.802;9.190;2023-03-05T03:07:51;63.13;;;25.73;;
13173;SDS011;6652;48.802;9.190;2023-03-05T03:10:18;58.25;;;25.85;;
13173;SDS011;6652;48.802;9.190;2023-03-05T03:12:46;69.60;;;26.20;;
13173;SDS011;6652;48.802;9.190;2023-03-05T03:15:14;60.72;;;25.38;;
13173;SDS011;6652;48.802;9.190;2023-03-05T03:17:42;65.07;;;25.25;;
13173;SDS011;6652;48.802;9.190;2023-03-05T03:20:11;63.47;;;26.38;;
13173;SDS011;6652;48.802;9.190;2023-03-05T03:22:39;63.35;;;24.73;;
13173;SDS011;6652;48.802;9.190;2023-03-05T03:25:07;62.55;;;25.98;;
13173;SDS011;6652;48.802;9.190;2023-03-05T03:27:34;67.35;;;26.45;;
13173;SDS011;6652;48.802;9.190;2023-03-05T03:30:03;61.28;;;26.48;;
13173;SDS011;6652;48.802;9.190;2023-03-05T03:32:31;57.35;;;25.58;;
13173;SDS011;6652;48.802;9.190;2023-03-05T03:34:58;56.35;;;24.90;;
13173;SDS011;6652;48.802;9.190;2023-03-05T03:37:25;62.58;;;24.23;;
13173;SDS011;6652;48.802;9.190;2023-03-05T03:39:52;59.22;;;24.63;;
13173;SDS011;6652;48.802;9.190;2023-03-05T03:42:20;56.33;;;23.73;;
13173;SDS011;6652;48.802;9.190;2023-03-05T03:44:47;57.25;;;22.63;;
13173;SDS011;6652;48.802;9.190;2023-03-05T03:47:16;53.65;;;22.45;;
13173;SDS011;6652;48.802;9.190;2023-03-05T03:49:43;52.05;;;22.02;;
13173;SDS011;6652;48.802;9.190;2023-03-05T03:52:10;54.97;;;23.13;;
13173;SDS011;6652;48.802;9.190;2023-03-05T03:54:36;45.70;;;18.58;;
13173;SDS011;6652;48.802;9.190;2023-03-05T03:57:03;48.60;;;19.55;;
13173;SDS011;6652;48.802;9.190;2023-03-05T03:59:30;48.50;;;19.33;;
13173;SDS011;6652;48.802;9.190;2023-03-05T04:01:57;49.35;;;18.00;;
13173;SDS011;6652;48.802;9.190;2023-03-05T04:04:26;36.15;;;16.33;;
13173;SDS011;6652;48.802;9.190;2023-03-05T04:06:54;50.42;;;17.80;;
13173;SDS011;6652;48.802;9.190;2023-03-05T04:09:21;41.40;;;17.27;;
13173;SDS011;6652;48.802;9.190;2023-03-05T04:11:48;34.72;;;15.52;;
13173;SDS011;6652;48.802;9.190;2023-03-05T04:14:15;40.20;;;16.15;;
13173;SDS011;6652;48.802;9.190;2023-03-05T04:16:41;36.83;;;15.38;;
13173;SDS011;6652;48.802;9.190;2023-03-05T04:19:08;44.88;;;17.80;;
13173;SDS011;6652;48.802;9.190;2023-03-05T04:21:36;36.10;;;15.02;;
13173;SDS011;6652;48.802;9.190;2023-03-05T04:24:04;41.00;;;14.90;;
13173;SDS011;6652;48.802;9.190;2023-03-05T04:26:32;39.33;;;14.55;;
13173;SDS011;6652;48.802;9.190;2023-03-05T04:28:59;37.95;;;15.25;;
13173;SDS011;6652;48.802;9.190;2023-03-05T04:31:26;46.88;;;15.80;;
13173;SDS011;6652;48.802;9.190;2023-03-05T04:33:52;39.38;;;15.57;;
13173;SDS011;6652;48.802;9.190;2023-03-05T04:36:19;36.47;;;13.90;;
13173;SDS011;6652;48.802;9.190;2023-03-05T04:38:47;41.20;;;14.93;;
13173;SDS011;6652;48.802;9.190;2023-03-05T04:41:14;40.28;;;14.95;;
13173;SDS011;6652;48.802;9.190;2023-03-05T04:43:41;35.53;;;14.68;;
13173;SDS011;6652;48.802;9.190;2023-03-05T04:46:08;38.00;;;14.35;;
13173;SDS011;6652;48.802;9.190;2023-03-05T04:48:35;32.67;;;13.73;;
13173;SDS011;6652;48.802;9.190;2023-03-05T04:51:01;35.78;;;14.77;;
13173;SDS011;6652;48.802;9.190;2023-03-05T04:53:28;33.80;;;13.85;;
13173;SDS011;6652;48.802;9.190;2023-03-05T04:55:56;36.13;;;13.48;;
13173;SDS011;6652;48.802;9.190;2023-03-05T04:58:25;29.35;;;13.13;;
13173;SDS011;6652;48.802;9.190;2023-03-05T05:00:52;35.20;;;13.05;;
13173;SDS011;6652;48.802;9.190;2023-03-05T05:03:19;38.42;;;15.00;;
13173;SDS011;6652;48.802;9.190;2023-03-05T05:05:52;37.95;;;14.40;;
13173;SDS011;6652;48.802;9.190;2023-03-05T05:08:20;33.53;;;14.38;;
13173;SDS011;6652;48.802;9.190;2023-03-05T05:10:53;36.50;;;13.25;;
13173;SDS011;6652;48.802;9.190;2023-03-05T05:13:22;38.28;;;14.00;;
13173;SDS011;6652;48.802;9.190;2023-03-05T05:15:55;32.55;;;12.93;;
13173;SDS011;6652;48.802;9.190;2023-03-05T05:18:22;37.15;;;14.32;;
13173;SDS011;6652;48.802;9.190;2023-03-05T05:20:49;46.83;;;16.13;;
13173;SDS011;6652;48.802;9.190;2023-03-05T05:23:16;33.10;;;14.20;;
13173;SDS011;6652;48.802;9.190;2023-03-05T05:25:43;35.25;;;14.27;;
13173;SDS011;6652;48.802;9.190;2023-03-05T05:28:10;41.45;;;16.15;;
13173;SDS011;6652;48.802;9.190;2023-03-05T05:30:39;32.95;;;14.50;;
13173;SDS011;6652;48.802;9.190;2023-03-05T05:33:06;35.67;;;14.27;;
13173;SDS011;6652;48.802;9.190;2023-03-05T05:35:32;36.17;;;14.80;;
13173;SDS011;6652;48.802;9.190;2023-03-05T05:37:59;44.03;;;16.33;;
13173;SDS011;6652;48.802;9.190;2023-03-05T05:40:26;33.50;;;14.02;;
13173;SDS011;6652;48.802;9.190;2023-03-05T05:42:53;35.90;;;15.05;;
13173;SDS011;6652;48.802;9.190;2023-03-05T05:45:19;37.03;;;15.13;;
13173;SDS011;6652;48.802;9.190;2023-03-05T05:47:48;36.60;;;15.05;;
13173;SDS011;6652;48.802;9.190;2023-03-05T05:50:14;39.53;;;16.38;;
13173;SDS011;6652;48.802;9.190;2023-03-05T05:52:41;37.72;;;14.57;;
13173;SDS011;6652;48.802;9.190;2023-03-05T05:55:08;38.67;;;15.75;;
13173;SDS011;6652;48.802;9.190;2023-03-05T05:57:36;39.03;;;16.45;;
13173;SDS011;6652;48.802;9.190;2023-03-05T06:00:04;40.40;;;15.82;;
13173;SDS011;6652;48.802;9.190;2023-03-05T06:02:36;38.95;;;16.42;;
13173;SDS011;6652;48.802;9.190;2023-03-05T06:05:05;34.60;;;14.48;;
13173;SDS011;6652;48.802;9.190;2023-03-05T06:07:33;38.38;;;15.48;;
13173;SDS011;6652;48.802;9.190;2023-03-05T06:10:01;31.77;;;15.55;;
13173;SDS011;6652;48.802;9.190;2023-03-05T06:12:28;35.50;;;15.00;;
13173;SDS011;6652;48.802;9.190;2023-03-05T06:14:55;36.25;;;16.05;;
13173;SDS011;6652;48.802;9.190;2023-03-05T06:17:22;42.50;;;17.75;;
13173;SDS011;6652;48.802;9.190;2023-03-05T06:19:49;34.58;;;15.07;;
13173;SDS011;6652;48.802;9.190;2023-03-05T06:22:20;43.40;;;16.52;;
13173;SDS011;6652;48.802;9.190;2023-03-05T06:24:47;39.40;;;16.05;;
13173;SDS011;6652;48.802;9.190;2023-03-05T06:27:14;36.78;;;16.00;;
13173;SDS011;6652;48.802;9.190;2023-03-05T06:29:41;39.28;;;16.88;;
13173;SDS011;6652;48.802;9.190;2023-03-05T06:32:08;47.25;;;16.85;;
13173;SDS011;6652;48.802;9.190;2023-03-05T06:34:34;39.13;;;16.52;;
13173;SDS011;6652;48.802;9.190;2023-03-05T06:37:01;40.67;;;16.92;;
13173;SDS011;6652;48.802;9.190;2023-03-05T06:39:30;34.15;;;16.10;;
13173;SDS011;6652;48.802;9.190;2023-03-05T06:41:57;40.47;;;17.25;;
13173;SDS011;6652;48.802;9.190;2023-03-05T06:44:24;48.08;;;17.30;;
13173;SDS011;6652;48.802;9.190;2023-03-05T06:46:51;39.67;;;17.15;;
13173;SDS011;6652;48.802;9.190;2023-03-05T06:49:18;37.95;;;16.58;;
13173;SDS011;6652;48.802;9.190;2023-03-05T06:51:45;39.58;;;17.13;;
13173;SDS011;6652;48.802;9.190;2023-03-05T06:54:13;38.80;;;15.20;;
13173;SDS011;6652;48.802;9.190;2023-03-05T06:56:43;43.22;;;17.13;;
13173;SDS011;6652;48.802;9.190;2023-03-05T06:59:11;43.03;;;17.38;;
13173;SDS011;6652;48.802;9.190;2023-03-05T07:01:40;41.50;;;17.60;;
13173;SDS011;6652;48.802;9.190;2023-03-05T07:04:07;41.72;;;16.88;;
13173;SDS011;6652;48.802;9.190;2023-03-05T07:06:34;43.55;;;17.02;;
13173;SDS011;6652;48.802;9.190;2023-03-05T07:09:03;39.10;;;17.90;;
13173;SDS011;6652;48.802;9.190;2023-03-05T07:11:31;43.40;;;18.15;;
13173;SDS011;6652;48.802;9.190;2023-03-05T07:14:00;40.25;;;17.23;;
13173;SDS011;6652;48.802;9.190;2023-03-05T07:16:28;40.58;;;18.05;;
13173;SDS011;6652;48.802;9.190;2023-03-05T07:18:57;41.33;;;18.52;;
13173;SDS011;6652;48.802;9.190;2023-03-05T07:21:27;44.60;;;18.17;;
13173;SDS011;6652;48.802;9.190;2023-03-05T07:23:56;36.30;;;17.15;;
13173;SDS011;6652;48.802;9.190;2023-03-05T07:26:25;40.65;;;17.67;;
13173;SDS011;6652;48.802;9.190;2023-03-05T07:28:53;42.42;;;17.42;;
13173;SDS011;6652;48.802;9.190;2023-03-05T07:31:22;39.63;;;17.88;;
13173;SDS011;6652;48.802;9.190;2023-03-05T07:33:51;47.25;;;18.23;;
13173;SDS011;6652;48.802;9.190;2023-03-05T07:36:18;39.47;;;18.10;;
13173;SDS011;6652;48.802;9.190;2023-03-05T07:38:45;42.50;;;18.23;;
13173;SDS011;6652;48.802;9.190;2023-03-05T07:41:13;40.78;;;17.33;;
13173;SDS011;6652;48.802;9.190;2023-03-05T07:43:43;36.70;;;15.88;;
13173;SDS011;6652;48.802;9.190;2023-03-05T07:46:10;42.97;;;17.15;;
13173;SDS011;6652;48.802;9.190;2023-03-05T07:48:41;42.97;;;17.17;;
13173;SDS011;6652;48.802;9.190;2023-03-05T07:51:09;39.72;;;17.48;;
13173;SDS011;6652;48.802;9.190;2023-03-05T07:53:39;35.17;;;15.73;;
13173;SDS011;6652;48.802;9.190;2023-03-05T07:56:06;40.72;;;17.08;;
13173;SDS011;6652;48.802;9.190;2023-03-05T07:58:33;38.35;;;16.80;;
13173;SDS011;6652;48.802;9.190;2023-03-05T08:01:00;44.58;;;18.15;;
13173;SDS011;6652;48.802;9.190;2023-03-05T08:03:30;37.38;;;16.77;;
13173;SDS011;6652;48.802;9.190;2023-03-05T08:05:58;40.85;;;17.00;;
13173;SDS011;6652;48.802;9.190;2023-03-05T08:08:25;42.97;;;18.70;;
13173;SDS011;6652;48.802;9.190;2023-03-05T08:10:52;42.80;;;17.48;;
13173;SDS011;6652;48.802;9.190;2023-03-05T08:13:19;42.33;;;17.52;;
13173;SDS011;6652;48.802;9.190;2023-03-05T08:15:45;48.42;;;18.42;;
13173;SDS011;6652;48.802;9.190;2023-03-05T08:18:12;35.17;;;16.42;;
13173;SDS011;6652;48.802;9.190;2023-03-05T08:20:42;37.30;;;16.88;;
13173;SDS011;6652;48.802;9.190;2023-03-05T08:23:11;34.58;;;15.95;;
13173;SDS011;6652;48.802;9.190;2023-03-05T08:25:38;38.92;;;16.50;;
13173;SDS011;6652;48.802;9.190;2023-03-05T08:28:04;37.95;;;16.58;;
13173;SDS011;6652;48.802;9.190;2023-03-05T08:30:31;36.60;;;16.75;;
13173;SDS011;6652;48.802;9.190;2023-03-05T08:32:58;40.08;;;17.40;;
13173;SDS011;6652;48.802;9.190;2023-03-05T08:35:25;35.10;;;16.77;;
13173;SDS011;6652;48.802;9.190;2023-03-05T08:37:52;38.28;;;18.20;;
13173;SDS011;6652;48.802;9.190;2023-03-05T08:40:20;35.00;;;16.60;;
13173;SDS011;6652;48.802;9.190;2023-03-05T08:42:46;34.53;;;16.00;;
13173;SDS011;6652;48.802;9.190;2023-03-05T08:45:15;34.63;;;16.85;;
13173;SDS011;6652;48.802;9.190;2023-03-05T08:47:42;40.42;;;16.65;;
13173;SDS011;6652;48.802;9.190;2023-03-05T08:50:10;37.40;;;16.35;;
13173;SDS011;6652;48.802;9.190;2023-03-05T08:52:37;48.38;;;17.45;;
13173;SDS011;6652;48.802;9.190;2023-03-05T08:55:04;42.88;;;18.30;;
13173;SDS011;6652;48.802;9.190;2023-03-05T08:57:32;38.22;;;17.05;;
13173;SDS011;6652;48.802;9.190;2023-03-05T08:59:59;34.85;;;16.67;;
13173;SDS011;6652;48.802;9.190;2023-03-05T09:02:26;34.95;;;16.13;;
13173;SDS011;6652;48.802;9.190;2023-03-05T09:04:54;36.92;;;16.27;;
13173;SDS011;6652;48.802;9.190;2023-03-05T09:07:20;39.78;;;16.98;;
13173;SDS011;6652;48.802;9.190;2023-03-05T09:09:47;40.40;;;17.83;;
13173;SDS011;6652;48.802;9.190;2023-03-05T09:12:14;45.03;;;16.85;;
13173;SDS011;6652;48.802;9.190;2023-03-05T09:14:42;38.03;;;16.83;;
13173;SDS011;6652;48.802;9.190;2023-03-05T09:17:09;42.80;;;17.27;;
13173;SDS011;6652;48.802;9.190;2023-03-05T09:19:36;35.92;;;17.13;;
13173;SDS011;6652;48.802;9.190;2023-03-05T09:22:03;34.97;;;17.15;;
13173;SDS011;6652;48.802;9.190;2023-03-05T09:24:29;34.92;;;18.10;;
13173;SDS011;6652;48.802;9.190;2023-03-05T09:26:57;39.28;;;17.20;;
13173;SDS011;6652;48.802;9.190;2023-03-05T09:29:24;41.55;;;18.35;;
13173;SDS011;6652;48.802;9.190;2023-03-05T09:31:53;38.72;;;17.55;;
13173;SDS011;6652;48.802;9.190;2023-03-05T09:34:20;38.42;;;17.55;;
13173;SDS011;6652;48.802;9.190;2023-03-05T09:36:47;40.17;;;17.27;;
13173;SDS011;6652;48.802;9.190;2023-03-05T09:39:15;36.85;;;17.42;;
13173;SDS011;6652;48.802;9.190;2023-03-05T09:41:48;40.30;;;17.63;;
13173;SDS011;6652;48.802;9.190;2023-03-05T09:44:30;40.95;;;17.13;;
13173;SDS011;6652;48.802;9.190;2023-03-05T09:47:07;37.72;;;18.00;;
13173;SDS011;6652;48.802;9.190;2023-03-05T09:49:46;39.90;;;17.88;;
13173;SDS011;6652;48.802;9.190;2023-03-05T09:52:27;37.58;;;17.67;;
13173;SDS011;6652;48.802;9.190;2023-03-05T09:55:01;39.80;;;18.50;;
13173;SDS011;6652;48.802;9.190;2023-03-05T09:57:31;35.78;;;18.38;;
13173;SDS011;6652;48.802;9.190;2023-03-05T10:00:10;38.20;;;17.20;;
13173;SDS011;6652;48.802;9.190;2023-03-05T10:02:54;45.97;;;18.70;;
13173;SDS011;6652;48.802;9.190;2023-03-05T10:05:27;41.35;;;18.10;;
13173;SDS011;6652;48.802;9.190;2023-03-05T10:08:00;39.75;;;17.25;;
13173;SDS011;6652;48.802;9.190;2023-03-05T10:10:32;33.95;;;17.23;;
13173;SDS011;6652;48.802;9.190;2023-03-05T10:13:06;33.63;;;17.17;;
13173;SDS011;6652;48.802;9.190;2023-03-05T10:15:43;34.33;;;17.67;;
13173;SDS011;6652;48.802;9.190;2023-03-05T10:18:23;47.70;;;18.65;;
13173;SDS011;6652;48.802;9.190;2023-03-05T10:20:57;42.88;;;18.35;;
13173;SDS011;6652;48.802;9.190;2023-03-05T10:23:30;35.70;;;16.80;;
13173;SDS011;6652;48.802;9.190;2023-03-05T10:28:46;41.53;;;17.75;;
13173;SDS011;6652;48.802;9.190;2023-03-05T10:31:28;35.35;;;16.38;;
13173;SDS011;6652;48.802;9.190;2023-03-05T10:34:07;46.35;;;18.45;;
13173;SDS011;6652;48.802;9.190;2023-03-05T10:36:47;34.20;;;16.52;;
13173;SDS011;6652;48.802;9.190;2023-03-05T10:39:39;40.22;;;16.98;;
13173;SDS011;6652;48.802;9.190;2023-03-05T10:42:15;32.72;;;16.10;;
13173;SDS011;6652;48.802;9.190;2023-03-05T10:44:50;38.35;;;17.33;;
13173;SDS011;6652;48.802;9.190;2023-03-05T10:47:21;32.75;;;16.08;;
13173;SDS011;6652;48.802;9.190;2023-03-05T10:49:53;34.38;;;17.48;;
13173;SDS011;6652;48.802;9.190;2023-03-05T10:52:21;31.45;;;15.40;;
13173;SDS011;6652;48.802;9.190;2023-03-05T10:54:52;38.42;;;16.80;;
13173;SDS011;6652;48.802;9.190;2023-03-05T10:57:19;34.75;;;16.30;;
13173;SDS011;6652;48.802;9.190;2023-03-05T10:59:48;39.95;;;17.38;;
13173;SDS011;6652;48.802;9.190;2023-03-05T11:02:16;37.28;;;17.73;;
13173;SDS011;6652;48.802;9.190;2023-03-05T11:04:44;40.67;;;17.17;;
13173;SDS011;6652;48.802;9.190;2023-03-05T11:10:16;42.80;;;18.20;;
13173;SDS011;6652;48.802;9.190;2023-03-05T11:12:45;39.67;;;18.00;;
13173;SDS011;6652;48.802;9.190;2023-03-05T11:15:27;38.72;;;18.10;;
13173;SDS011;6652;48.802;9.190;2023-03-05T11:20:48;40.50;;;17.80;;
13173;SDS011;6652;48.802;9.190;2023-03-05T11:23:15;43.42;;;18.83;;
13173;SDS011;6652;48.802;9.190;2023-03-05T11:25:51;40.28;;;18.05;;
13173;SDS011;6652;48.802;9.190;2023-03-05T11:28:23;47.53;;;18.45;;
13173;SDS011;6652;48.802;9.190;2023-03-05T11:30:56;35.85;;;16.77;;
13173;SDS011;6652;48.802;9.190;2023-03-05T11:33:26;40.83;;;17.83;;
13173;SDS011;6652;48.802;9.190;2023-03-05T11:36:08;40.17;;;17.60;;
13173;SDS011;6652;48.802;9.190;2023-03-05T11:38:43;36.78;;;16.35;;
13173;SDS011;6652;48.802;9.190;2023-03-05T11:41:13;38.97;;;18.05;;
13173;SDS011;6652;48.802;9.190;2023-03-05T11:43:50;35.35;;;16.77;;
13173;SDS011;6652;48.802;9.190;2023-03-05T11:46:18;38.60;;;18.33;;
13173;SDS011;6652;48.802;9.190;2023-03-05T11:48:46;34.60;;;18.98;;
13173;SDS011;6652;48.802;9.190;2023-03-05T11:51:15;39.40;;;20.17;;
13173;SDS011;6652;48.802;9.190;2023-03-05T11:53:46;38.78;;;19.85;;
13173;SDS011;6652;48.802;9.190;2023-03-05T11:56:19;36.88;;;16.75;;
13173;SDS011;6652;48.802;9.190;2023-03-05T11:58:51;36.60;;;16.95;;
13173;SDS011;6652;48.802;9.190;2023-03-05T12:01:26;31.65;;;14.98;;
13173;SDS011;6652;48.802;9.190;2023-03-05T12:03:57;28.33;;;13.30;;
13173;SDS011;6652;48.802;9.190;2023-03-05T12:06:27;28.65;;;14.18;;
13173;SDS011;6652;48.802;9.190;2023-03-05T12:08:58;41.33;;;18.00;;
13173;SDS011;6652;48.802;9.190;2023-03-05T12:11:29;37.90;;;17.48;;
13173;SDS011;6652;48.802;9.190;2023-03-05T12:13:58;36.17;;;17.00;;
13173;SDS011;6652;48.802;9.190;2023-03-05T12:19:01;31.30;;;15.48;;
13173;SDS011;6652;48.802;9.190;2023-03-05T12:21:45;32.85;;;15.35;;
13173;SDS011;6652;48.802;9.190;2023-03-05T12:24:35;28.98;;;13.70;;
13173;SDS011;6652;48.802;9.190;2023-03-05T12:27:09;30.55;;;14.02;;
13173;SDS011;6652;48.802;9.190;2023-03-05T12:29:41;29.42;;;13.38;;
13173;SDS011;6652;48.802;9.190;2023-03-05T12:35:29;32.05;;;13.13;;
13173;SDS011;6652;48.802;9.190;2023-03-05T12:38:08;31.33;;;13.52;;
13173;SDS011;6652;48.802;9.190;2023-03-05T12:40:43;32.15;;;14.02;;
13173;SDS011;6652;48.802;9.190;2023-03-05T12:48:49;38.22;;;15.48;;
13173;SDS011;6652;48.802;9.190;2023-03-05T12:56:47;37.20;;;15.68;;
13173;SDS011;6652;48.802;9.190;2023-03-05T12:59:17;37.13;;;15.18;;
13173;SDS011;6652;48.802;9.190;2023-03-05T13:01:49;35.38;;;15.13;;
13173;SDS011;6652;48.802;9.190;2023-03-05T13:04:21;32.08;;;15.05;;
13173;SDS011;6652;48.802;9.190;2023-03-05T13:06:56;30.60;;;13.98;;
13173;SDS011;6652;48.802;9.190;2023-03-05T13:09:25;34.83;;;14.52;;
13173;SDS011;6652;48.802;9.190;2023-03-05T13:11:55;32.42;;;14.63;;
13173;SDS011;6652;48.802;9.190;2023-03-05T13:14:38;31.88;;;14.77;;
13173;SDS011;6652;48.802;9.190;2023-03-05T13:20:21;30.13;;;14.10;;
13173;SDS011;6652;48.802;9.190;2023-03-05T13:23:08;30.45;;;14.38;;
13173;SDS011;6652;48.802;9.190;2023-03-05T13:25:43;35.30;;;14.32;;
13173;SDS011;6652;48.802;9.190;2023-03-05T13:28:21;29.83;;;14.15;;
13173;SDS011;6652;48.802;9.190;2023-03-05T13:30:50;30.20;;;14.65;;
13173;SDS011;6652;48.802;9.190;2023-03-05T13:33:19;30.67;;;13.57;;
13173;SDS011;6652;48.802;9.190;2023-03-05T13:35:50;27.63;;;13.43;;
13173;SDS011;6652;48.802;9.190;2023-03-05T13:38:21;31.67;;;13.48;;
13173;SDS011;6652;48.802;9.190;2023-03-05T13:41:00;42.78;;;14.38;;
13173;SDS011;6652;48.802;9.190;2023-03-05T13:43:28;30.38;;;14.98;;
13173;SDS011;6652;48.802;9.190;2023-03-05T13:45:57;25.92;;;12.73;;
13173;SDS011;6652;48.802;9.190;2023-03-05T13:48:24;28.38;;;12.98;;
13173;SDS011;6652;48.802;9.190;2023-03-05T13:50:53;31.50;;;12.48;;
13173;SDS011;6652;48.802;9.190;2023-03-05T13:53:22;33.22;;;13.30;;
13173;SDS011;6652;48.802;9.190;2023-03-05T13:55:50;34.20;;;14.13;;
13173;SDS011;6652;48.802;9.190;2023-03-05T13:58:39;28.77;;;12.77;;
13173;SDS011;6652;48.802;9.190;2023-03-05T14:01:11;32.53;;;13.27;;
13173;SDS011;6652;48.802;9.190;2023-03-05T14:03:39;29.15;;;13.73;;
13173;SDS011;6652;48.802;9.190;2023-03-05T14:06:07;25.27;;;12.73;;
13173;SDS011;6652;48.802;9.190;2023-03-05T14:08:35;31.55;;;13.75;;
13173;SDS011;6652;48.802;9.190;2023-03-05T14:11:10;30.75;;;14.27;;
13173;SDS011;6652;48.802;9.190;2023-03-05T14:13:40;30.63;;;13.48;;
13173;SDS011;6652;48.802;9.190;2023-03-05T14:19:05;30.98;;;14.13;;
13173;SDS011;6652;48.802;9.190;2023-03-05T14:21:51;30.13;;;13.55;;
13173;SDS011;6652;48.802;9.190;2023-03-05T14:24:19;32.42;;;15.15;;
13173;SDS011;6652;48.802;9.190;2023-03-05T14:26:48;31.48;;;15.18;;
13173;SDS011;6652;48.802;9.190;2023-03-05T14:29:17;33.65;;;14.95;;
13173;SDS011;6652;48.802;9.190;2023-03-05T14:31:50;29.38;;;13.85;;
13173;SDS011;6652;48.802;9.190;2023-03-05T14:34:23;32.65;;;14.48;;
13173;SDS011;6652;48.802;9.190;2023-03-05T14:36:54;32.17;;;14.38;;
13173;SDS011;6652;48.802;9.190;2023-03-05T14:39:27;37.70;;;14.90;;
13173;SDS011;6652;48.802;9.190;2023-03-05T14:44:52;32.05;;;13.93;;
13173;SDS011;6652;48.802;9.190;2023-03-05T14:47:21;27.90;;;13.02;;
13173;SDS011;6652;48.802;9.190;2023-03-05T14:49:48;34.75;;;13.38;;
13173;SDS011;6652;48.802;9.190;2023-03-05T14:52:15;34.80;;;13.93;;
13173;SDS011;6652;48.802;9.190;2023-03-05T14:54:44;34.03;;;15.15;;
13173;SDS011;6652;48.802;9.190;2023-03-05T14:57:12;54.65;;;16.77;;
13173;SDS011;6652;48.802;9.190;2023-03-05T14:59:41;40.00;;;16.63;;
13173;SDS011;6652;48.802;9.190;2023-03-05T15:02:10;37.80;;;15.55;;
13173;SDS011;6652;48.802;9.190;2023-03-05T15:04:41;38.17;;;15.38;;
13173;SDS011;6652;48.802;9.190;2023-03-05T15:07:11;37.00;;;15.90;;
13173;SDS011;6652;48.802;9.190;2023-03-05T15:09:45;35.25;;;16.58;;
13173;SDS011;6652;48.802;9.190;2023-03-05T15:12:13;43.65;;;17.08;;
13173;SDS011;6652;48.802;9.190;2023-03-05T15:14:41;39.42;;;16.23;;
13173;SDS011;6652;48.802;9.190;2023-03-05T15:17:10;39.97;;;17.15;;
13173;SDS011;6652;48.802;9.190;2023-03-05T15:19:43;39.10;;;16.52;;
13173;SDS011;6652;48.802;9.190;2023-03-05T15:22:11;43.30;;;17.80;;
13173;SDS011;6652;48.802;9.190;2023-03-05T15:24:38;45.83;;;18.05;;